Wetterverlauf

Letzte Wetterlage 02.09.2014 20:30
Wetterdiagramm
Tabellarische Darstellung
Datum Temperatur Windchill Feuchte Luftdruck Windrichtung Windstärke Niederschlag
02.09.2014 20:45 15,1 °C 15,1 °C 96 % 1023,0 hPa 71 0.0 0,00 mm
02.09.2014 20:30 15,3 °C 15,3 °C 96 % 1022,6 hPa 90 0.0 0,00 mm
02.09.2014 20:10 15,5 °C 15,5 °C 97 % 1022,4 hPa 135 0.0 2,70 mm
02.09.2014 20:00 15,6 °C 15,6 °C 97 % 1022,3 hPa 80 0.5 0,00 mm
02.09.2014 19:45 15,8 °C 15,8 °C 97 % 1022,0 hPa 90 0.0 0,00 mm
02.09.2014 19:30 16,0 °C 16,0 °C 97 % 1021,9 hPa 73 0.0 0,00 mm
02.09.2014 19:10 16,4 °C 16,4 °C 97 % 1021,7 hPa 180 0.0 2,70 mm
02.09.2014 19:00 16,4 °C 16,4 °C 98 % 1021,6 hPa 71 0.0 0,30 mm
02.09.2014 18:45 16,4 °C 16,4 °C 98 % 1021,5 hPa 270 0.0 0,30 mm
02.09.2014 18:30 16,1 °C 16,1 °C 98 % 1021,4 hPa 270 0.0 0,30 mm
02.09.2014 18:10 16,1 °C 16,1 °C 97 % 1021,3 hPa 180 0.0 2,70 mm
02.09.2014 18:00 16,0 °C 16,0 °C 96 % 1021,3 hPa 90 0.0 0,30 mm
02.09.2014 17:45 16,2 °C 16,2 °C 95 % 1021,3 hPa 90 0.0 0,00 mm
02.09.2014 17:30 16,4 °C 16,4 °C 94 % 1021,1 hPa 71 0.0 0,00 mm
02.09.2014 17:10 17,1 °C 17,1 °C 94 % 1021,1 hPa 90 0.0 2,40 mm
02.09.2014 17:00 17,6 °C 17,6 °C 91 % 1020,9 hPa 73 0.0 0,00 mm
02.09.2014 16:45 18,6 °C 18,6 °C 89 % 1020,8 hPa 102 0.0 0,00 mm
02.09.2014 16:30 19,4 °C 19,4 °C 90 % 1020,8 hPa 26 0.0 0,00 mm
02.09.2014 16:10 20,6 °C 20,6 °C 94 % 1020,8 hPa 270 0.0 2,40 mm
02.09.2014 16:00 18,3 °C 18,3 °C 97 % 1020,8 hPa 61 0.0 0,00 mm
02.09.2014 15:45 17,1 °C 17,1 °C 98 % 1020,9 hPa 90 0.0 0,00 mm
02.09.2014 15:30 16,7 °C 16,7 °C 99 % 1021,1 hPa 48 0.0 0,00 mm
02.09.2014 15:10 16,6 °C 16,6 °C 98 % 1021,0 hPa 90 0.0 2,40 mm
02.09.2014 15:00 16,7 °C 16,7 °C 99 % 1021,0 hPa 353 0.0 0,30 mm
02.09.2014 14:45 16,9 °C 16,9 °C 99 % 1021,0 hPa 87 0.0 0,30 mm
Empfehlen Sie wetter.com
| Mehr
Neue Wetterwarnung

Neue Niederschlagsmeldung
Neue Meldung
Regen Liveticker
    sehr starker Regen/Gewitter
    starker Regen/Gewitter
    mäßiger bis starker Regen
    mäßiger Regen
    leichter bis mäßiger Regen
    kein Regen